RYR66 EGKK-EHAM
Flight info
| Callsign | RYR66 |
|---|---|
| Flight time | 0h 43m |
| Altitude | 29000 |
| Route | FRANE M604 GASBA M197 REDFA |
| Aircraft | B738/M-SDE2E3FGHIRWXY/LB1 |
Departure
| Time | 2026-05-06 19:55 |
|---|---|
| Airport | London Gatwick Airport (EGKK) |
Arrival
| Time | 2026-05-06 20:38 |
|---|---|
| Airport | Amsterdam Airport Schiphol (EHAM) |
| Time | Latitude | Longitude | Altitude | Speed | Heading |
|---|---|---|---|---|---|
| 2026-05-06 19:31 | 51.15466 | -0.17080 | 204 ft | 0 kts | 347° |
| 2026-05-06 19:40 | 51.15457 | -0.17076 | 204 ft | 2 kts | 342° |
| 2026-05-06 19:40 | 51.15441 | -0.17068 | 204 ft | 2 kts | 336° |
| 2026-05-06 19:40 | 51.15427 | -0.17055 | 209 ft | 2 kts | 316° |
| 2026-05-06 19:40 | 51.15418 | -0.17033 | 213 ft | 2 kts | 276° |
| 2026-05-06 19:41 | 51.15419 | -0.17011 | 213 ft | 1 kts | 257° |
| 2026-05-06 19:41 | 51.15419 | -0.17006 | 213 ft | 0 kts | 256° |
| 2026-05-06 19:41 | 51.15419 | -0.17008 | 213 ft | 1 kts | 256° |
| 2026-05-06 19:42 | 51.15410 | -0.17067 | 206 ft | 7 kts | 257° |
| 2026-05-06 19:42 | 51.15395 | -0.17141 | 210 ft | 7 kts | 246° |
| 2026-05-06 19:42 | 51.15377 | -0.17213 | 212 ft | 7 kts | 252° |
| 2026-05-06 19:42 | 51.15359 | -0.17312 | 204 ft | 13 kts | 250° |
| 2026-05-06 19:43 | 51.15298 | -0.17423 | 206 ft | 14 kts | 252° |
| 2026-05-06 19:43 | 51.15279 | -0.17568 | 203 ft | 13 kts | 259° |
| 2026-05-06 19:43 | 51.15260 | -0.17708 | 212 ft | 13 kts | 257° |
| 2026-05-06 19:43 | 51.15244 | -0.17845 | 215 ft | 12 kts | 263° |
| 2026-05-06 19:44 | 51.15225 | -0.17978 | 208 ft | 13 kts | 255° |
| 2026-05-06 19:44 | 51.15202 | -0.18129 | 203 ft | 15 kts | 257° |
| 2026-05-06 19:44 | 51.15178 | -0.18312 | 203 ft | 19 kts | 259° |
| 2026-05-06 19:44 | 51.15150 | -0.18531 | 203 ft | 21 kts | 258° |
| 2026-05-06 19:45 | 51.15118 | -0.18777 | 203 ft | 24 kts | 258° |
| 2026-05-06 19:45 | 51.15081 | -0.19046 | 209 ft | 25 kts | 257° |
| 2026-05-06 19:45 | 51.15056 | -0.19233 | 212 ft | 26 kts | 257° |
| 2026-05-06 19:45 | 51.15003 | -0.19620 | 209 ft | 28 kts | 256° |
| 2026-05-06 19:46 | 51.14977 | -0.19822 | 207 ft | 27 kts | 257° |
| 2026-05-06 19:46 | 51.14923 | -0.20199 | 203 ft | 25 kts | 257° |
| 2026-05-06 19:46 | 51.14898 | -0.20373 | 213 ft | 24 kts | 257° |
| 2026-05-06 19:46 | 51.14865 | -0.20623 | 206 ft | 23 kts | 258° |
| 2026-05-06 19:47 | 51.14831 | -0.20864 | 205 ft | 22 kts | 258° |
| 2026-05-06 19:47 | 51.14799 | -0.21099 | 213 ft | 21 kts | 256° |
| 2026-05-06 19:47 | 51.14762 | -0.21324 | 203 ft | 20 kts | 255° |
| 2026-05-06 19:47 | 51.14714 | -0.21396 | 205 ft | 0 kts | 184° |
| 2026-05-06 19:49 | 51.14663 | -0.21361 | 212 ft | 17 kts | 140° |
| 2026-05-06 19:49 | 51.14621 | -0.21325 | 206 ft | 0 kts | 164° |
| 2026-05-06 19:53 | 51.14582 | -0.21307 | 203 ft | 16 kts | 161° |
| 2026-05-06 19:53 | 51.14518 | -0.21147 | 202 ft | 19 kts | 85° |
| 2026-05-06 19:53 | 51.14527 | -0.21072 | 208 ft | 1 kts | 77° |
| 2026-05-06 19:54 | 51.14532 | -0.21038 | 203 ft | 18 kts | 77° |
| 2026-05-06 19:54 | 51.14624 | -0.20380 | 206 ft | 102 kts | 78° |
| 2026-05-06 19:54 | 51.14832 | -0.18899 | 229 ft | 168 kts | 77° |
| 2026-05-06 19:54 | 51.15115 | -0.16884 | 663 ft | 201 kts | 78° |
| 2026-05-06 19:55 | 51.15416 | -0.14644 | 1479 ft | 204 kts | 77° |
| 2026-05-06 19:55 | 51.15713 | -0.12520 | 2634 ft | 192 kts | 77° |
| 2026-05-06 19:55 | 51.15994 | -0.10487 | 3752 ft | 186 kts | 77° |
| 2026-05-06 19:55 | 51.16281 | -0.08389 | 4382 ft | 207 kts | 77° |
| 2026-05-06 19:56 | 51.16607 | -0.05996 | 4622 ft | 234 kts | 77° |
| 2026-05-06 19:56 | 51.16929 | -0.03353 | 4959 ft | 249 kts | 84° |
| 2026-05-06 19:56 | 51.16952 | -0.00579 | 4990 ft | 253 kts | 92° |
| 2026-05-06 19:56 | 51.16858 | 0.02339 | 4995 ft | 271 kts | 93° |
| 2026-05-06 19:57 | 51.16766 | 0.05358 | 4982 ft | 274 kts | 92° |
| 2026-05-06 19:57 | 51.16692 | 0.08389 | 5002 ft | 273 kts | 92° |
| 2026-05-06 19:57 | 51.16629 | 0.11412 | 5012 ft | 273 kts | 92° |
| 2026-05-06 19:57 | 51.16570 | 0.14440 | 5015 ft | 273 kts | 92° |
| 2026-05-06 19:58 | 51.16539 | 0.17463 | 5014 ft | 273 kts | 90° |
| 2026-05-06 19:58 | 51.16550 | 0.20495 | 5011 ft | 274 kts | 89° |
| 2026-05-06 19:58 | 51.16565 | 0.23489 | 5012 ft | 274 kts | 89° |
| 2026-05-06 19:58 | 51.16575 | 0.26528 | 5009 ft | 274 kts | 90° |
| 2026-05-06 19:59 | 51.16581 | 0.29568 | 5008 ft | 274 kts | 90° |
| 2026-05-06 19:59 | 51.16586 | 0.32599 | 5004 ft | 274 kts | 90° |
| 2026-05-06 19:59 | 51.16589 | 0.35624 | 5005 ft | 273 kts | 90° |
| 2026-05-06 19:59 | 51.16592 | 0.38656 | 5004 ft | 273 kts | 90° |
| 2026-05-06 20:00 | 51.16594 | 0.41677 | 5004 ft | 273 kts | 90° |
| 2026-05-06 20:00 | 51.16595 | 0.44701 | 5004 ft | 273 kts | 90° |
| 2026-05-06 20:00 | 51.16594 | 0.47718 | 5004 ft | 272 kts | 90° |
| 2026-05-06 20:00 | 51.16652 | 0.50740 | 4994 ft | 272 kts | 79° |
| 2026-05-06 20:01 | 51.17388 | 0.53441 | 5006 ft | 270 kts | 51° |
| 2026-05-06 20:01 | 51.18834 | 0.55293 | 5012 ft | 268 kts | 25° |
| 2026-05-06 20:01 | 51.20607 | 0.56187 | 5013 ft | 268 kts | 12° |
| 2026-05-06 20:01 | 51.22313 | 0.57338 | 4996 ft | 270 kts | 37° |
| 2026-05-06 20:02 | 51.23775 | 0.59201 | 4993 ft | 270 kts | 27° |
| 2026-05-06 20:02 | 51.25554 | 0.60234 | 5256 ft | 275 kts | 16° |
| 2026-05-06 20:02 | 51.27388 | 0.61131 | 6254 ft | 274 kts | 16° |
| 2026-05-06 20:02 | 51.29213 | 0.62023 | 7263 ft | 276 kts | 16° |
| 2026-05-06 20:03 | 51.31065 | 0.62926 | 8175 ft | 280 kts | 16° |
| 2026-05-06 20:03 | 51.32945 | 0.63842 | 9078 ft | 284 kts | 16° |
| 2026-05-06 20:03 | 51.34824 | 0.64758 | 9958 ft | 287 kts | 16° |
| 2026-05-06 20:03 | 51.36749 | 0.65695 | 10824 ft | 291 kts | 16° |
| 2026-05-06 20:04 | 51.38703 | 0.66646 | 11675 ft | 295 kts | 16° |
| 2026-05-06 20:04 | 51.40683 | 0.67609 | 12474 ft | 300 kts | 16° |
| 2026-05-06 20:04 | 51.42678 | 0.68581 | 12868 ft | 301 kts | 16° |
| 2026-05-06 20:04 | 51.44690 | 0.69560 | 12988 ft | 302 kts | 16° |
| 2026-05-06 20:05 | 51.46705 | 0.70541 | 12998 ft | 303 kts | 16° |
| 2026-05-06 20:05 | 51.48721 | 0.71524 | 13009 ft | 303 kts | 16° |
| 2026-05-06 20:05 | 51.50753 | 0.72515 | 13014 ft | 304 kts | 16° |
| 2026-05-06 20:05 | 51.52772 | 0.73499 | 13026 ft | 315 kts | 16° |
| 2026-05-06 20:06 | 51.54958 | 0.74562 | 13023 ft | 336 kts | 16° |
| 2026-05-06 20:06 | 51.57229 | 0.75666 | 13153 ft | 344 kts | 16° |
| 2026-05-06 20:06 | 51.59534 | 0.76786 | 13945 ft | 346 kts | 16° |
| 2026-05-06 20:06 | 51.61843 | 0.77909 | 14656 ft | 347 kts | 16° |
| 2026-05-06 20:07 | 51.64151 | 0.79032 | 14979 ft | 350 kts | 16° |
| 2026-05-06 20:07 | 51.66539 | 0.80193 | 14998 ft | 360 kts | 16° |
| 2026-05-06 20:07 | 51.68941 | 0.81362 | 15003 ft | 361 kts | 16° |
| 2026-05-06 20:07 | 51.71348 | 0.82533 | 15007 ft | 361 kts | 16° |
| 2026-05-06 20:08 | 51.73753 | 0.83705 | 15004 ft | 362 kts | 16° |
| 2026-05-06 20:08 | 51.76136 | 0.84866 | 15005 ft | 362 kts | 16° |
| 2026-05-06 20:08 | 51.78550 | 0.86043 | 15005 ft | 362 kts | 16° |
| 2026-05-06 20:08 | 51.80965 | 0.87221 | 15003 ft | 362 kts | 16° |
| 2026-05-06 20:09 | 51.83376 | 0.88399 | 15005 ft | 362 kts | 16° |
| 2026-05-06 20:09 | 51.85790 | 0.89578 | 15005 ft | 362 kts | 16° |
| 2026-05-06 20:09 | 51.88194 | 0.90754 | 15003 ft | 362 kts | 16° |
| 2026-05-06 20:09 | 51.90604 | 0.91933 | 15003 ft | 361 kts | 16° |
| 2026-05-06 20:10 | 51.93010 | 0.93112 | 15004 ft | 361 kts | 16° |
| 2026-05-06 20:10 | 51.95382 | 0.94470 | 14990 ft | 362 kts | 28° |
| 2026-05-06 20:10 | 51.97263 | 0.97143 | 15006 ft | 362 kts | 55° |
| 2026-05-06 20:10 | 51.98234 | 1.00870 | 15009 ft | 362 kts | 81° |
| 2026-05-06 20:11 | 51.98451 | 1.04944 | 15019 ft | 362 kts | 84° |
| 2026-05-06 20:11 | 51.98755 | 1.09028 | 15151 ft | 368 kts | 82° |
| 2026-05-06 20:11 | 51.99132 | 1.13106 | 15847 ft | 371 kts | 81° |
| 2026-05-06 20:11 | 51.99537 | 1.17244 | 16702 ft | 371 kts | 81° |
| 2026-05-06 20:12 | 51.99948 | 1.21401 | 17447 ft | 375 kts | 81° |
| 2026-05-06 20:12 | 52.00361 | 1.25596 | 18110 ft | 379 kts | 81° |
| 2026-05-06 20:12 | 52.00776 | 1.29866 | 18766 ft | 383 kts | 81° |
| 2026-05-06 20:12 | 52.01190 | 1.34170 | 19417 ft | 387 kts | 81° |
| 2026-05-06 20:13 | 52.01604 | 1.38514 | 20059 ft | 391 kts | 81° |
| 2026-05-06 20:13 | 52.02018 | 1.42887 | 20676 ft | 394 kts | 81° |
| 2026-05-06 20:13 | 52.02434 | 1.47309 | 21271 ft | 398 kts | 81° |
| 2026-05-06 20:13 | 52.02852 | 1.51776 | 21849 ft | 401 kts | 81° |
| 2026-05-06 20:14 | 52.03271 | 1.56269 | 22417 ft | 405 kts | 81° |
| 2026-05-06 20:14 | 52.03693 | 1.60816 | 22926 ft | 409 kts | 81° |
| 2026-05-06 20:14 | 52.04117 | 1.65402 | 22983 ft | 412 kts | 81° |
| 2026-05-06 20:14 | 52.04538 | 1.69981 | 22998 ft | 409 kts | 81° |
| 2026-05-06 20:15 | 52.04957 | 1.74555 | 23004 ft | 409 kts | 81° |
| 2026-05-06 20:15 | 52.05375 | 1.79136 | 23011 ft | 410 kts | 81° |
| 2026-05-06 20:15 | 52.05790 | 1.83716 | 23011 ft | 410 kts | 81° |
| 2026-05-06 20:15 | 52.06206 | 1.88312 | 23011 ft | 411 kts | 82° |
| 2026-05-06 20:16 | 52.06619 | 1.92906 | 23007 ft | 411 kts | 82° |
| 2026-05-06 20:16 | 52.07026 | 1.97445 | 23006 ft | 411 kts | 82° |
| 2026-05-06 20:16 | 52.07435 | 2.02040 | 23004 ft | 411 kts | 82° |
| 2026-05-06 20:16 | 52.07843 | 2.06634 | 23003 ft | 411 kts | 82° |
| 2026-05-06 20:17 | 52.08250 | 2.11233 | 23004 ft | 410 kts | 82° |
| 2026-05-06 20:17 | 52.08653 | 2.15819 | 23004 ft | 410 kts | 82° |
| 2026-05-06 20:17 | 52.09055 | 2.20410 | 23004 ft | 410 kts | 82° |
| 2026-05-06 20:17 | 52.09454 | 2.24986 | 23004 ft | 409 kts | 82° |
| 2026-05-06 20:18 | 52.09852 | 2.29573 | 23003 ft | 409 kts | 82° |
| 2026-05-06 20:18 | 52.10247 | 2.34152 | 23005 ft | 409 kts | 82° |
| 2026-05-06 20:18 | 52.10643 | 2.38740 | 23003 ft | 409 kts | 82° |
| 2026-05-06 20:18 | 52.11036 | 2.43331 | 23005 ft | 409 kts | 82° |
| 2026-05-06 20:19 | 52.11480 | 2.47904 | 22997 ft | 409 kts | 76° |
| 2026-05-06 20:19 | 52.12577 | 2.52145 | 23026 ft | 408 kts | 59° |
| 2026-05-06 20:19 | 52.14019 | 2.56117 | 23003 ft | 408 kts | 58° |
| 2026-05-06 20:19 | 52.15489 | 2.60071 | 23008 ft | 409 kts | 58° |
| 2026-05-06 20:20 | 52.16962 | 2.64033 | 23004 ft | 409 kts | 58° |
| 2026-05-06 20:20 | 52.18428 | 2.68012 | 23002 ft | 409 kts | 59° |
| 2026-05-06 20:20 | 52.19864 | 2.71946 | 23003 ft | 409 kts | 59° |
| 2026-05-06 20:20 | 52.21313 | 2.75948 | 23004 ft | 410 kts | 59° |
| 2026-05-06 20:21 | 52.22756 | 2.79952 | 23004 ft | 410 kts | 59° |
| 2026-05-06 20:21 | 52.24193 | 2.83956 | 23004 ft | 410 kts | 59° |
| 2026-05-06 20:21 | 52.25632 | 2.87974 | 23003 ft | 410 kts | 59° |
| 2026-05-06 20:21 | 52.27066 | 2.91988 | 23004 ft | 410 kts | 59° |
| 2026-05-06 20:22 | 52.28501 | 2.96007 | 23003 ft | 409 kts | 59° |
| 2026-05-06 20:22 | 52.29932 | 3.00025 | 23004 ft | 409 kts | 59° |
| 2026-05-06 20:22 | 52.31365 | 3.04051 | 23005 ft | 409 kts | 59° |
| 2026-05-06 20:22 | 52.32791 | 3.08067 | 23004 ft | 409 kts | 59° |
| 2026-05-06 20:23 | 52.34223 | 3.12103 | 23009 ft | 413 kts | 59° |
| 2026-05-06 20:23 | 52.35687 | 3.16236 | 23013 ft | 427 kts | 59° |
| 2026-05-06 20:23 | 52.37174 | 3.20443 | 22997 ft | 422 kts | 59° |
| 2026-05-06 20:23 | 52.38620 | 3.24539 | 22690 ft | 412 kts | 59° |
| 2026-05-06 20:24 | 52.40065 | 3.28641 | 21688 ft | 419 kts | 60° |
| 2026-05-06 20:24 | 52.41539 | 3.32827 | 20473 ft | 430 kts | 60° |
| 2026-05-06 20:24 | 52.43047 | 3.37121 | 19371 ft | 437 kts | 60° |
| 2026-05-06 20:24 | 52.44522 | 3.41386 | 18562 ft | 435 kts | 63° |
| 2026-05-06 20:25 | 52.45504 | 3.46015 | 17863 ft | 429 kts | 77° |
| 2026-05-06 20:25 | 52.46129 | 3.50776 | 17226 ft | 423 kts | 78° |
| 2026-05-06 20:25 | 52.46753 | 3.55460 | 16512 ft | 419 kts | 77° |
| 2026-05-06 20:25 | 52.47389 | 3.60094 | 15784 ft | 415 kts | 77° |
| 2026-05-06 20:26 | 52.48033 | 3.64691 | 15082 ft | 411 kts | 77° |
| 2026-05-06 20:26 | 52.48676 | 3.69229 | 14532 ft | 404 kts | 77° |
| 2026-05-06 20:26 | 52.49301 | 3.73631 | 14365 ft | 388 kts | 77° |
| 2026-05-06 20:26 | 52.49898 | 3.77843 | 14248 ft | 371 kts | 77° |
| 2026-05-06 20:27 | 52.50471 | 3.81892 | 14148 ft | 357 kts | 77° |
| 2026-05-06 20:27 | 52.51019 | 3.85783 | 14057 ft | 343 kts | 77° |
| 2026-05-06 20:27 | 52.51544 | 3.89524 | 13972 ft | 331 kts | 77° |
| 2026-05-06 20:27 | 52.52043 | 3.93136 | 13891 ft | 319 kts | 79° |
| 2026-05-06 20:28 | 52.52042 | 3.96693 | 13799 ft | 308 kts | 102° |
| 2026-05-06 20:28 | 52.51293 | 3.99888 | 13695 ft | 297 kts | 121° |
| 2026-05-06 20:28 | 52.50182 | 4.02710 | 13446 ft | 293 kts | 124° |
| 2026-05-06 20:28 | 52.49020 | 4.05468 | 13117 ft | 293 kts | 125° |
| 2026-05-06 20:29 | 52.47865 | 4.08176 | 12806 ft | 293 kts | 125° |
| 2026-05-06 20:29 | 52.46697 | 4.10921 | 12512 ft | 291 kts | 125° |
| 2026-05-06 20:29 | 52.45516 | 4.13707 | 11695 ft | 305 kts | 125° |
| 2026-05-06 20:29 | 52.44300 | 4.16589 | 10852 ft | 313 kts | 125° |
| 2026-05-06 20:30 | 52.43045 | 4.19571 | 10107 ft | 316 kts | 125° |
| 2026-05-06 20:30 | 52.40692 | 4.25178 | 9818 ft | 282 kts | 125° |
| 2026-05-06 20:30 | 52.39602 | 4.27775 | 9319 ft | 281 kts | 125° |
| 2026-05-06 20:31 | 52.38479 | 4.30449 | 8770 ft | 282 kts | 125° |
| 2026-05-06 20:31 | 52.37380 | 4.33064 | 8232 ft | 282 kts | 125° |
| 2026-05-06 20:31 | 52.36268 | 4.35706 | 7685 ft | 282 kts | 125° |
| 2026-05-06 20:31 | 52.35396 | 4.37777 | 7258 ft | 282 kts | 125° |
| 2026-05-06 20:32 | 52.34284 | 4.40416 | 6709 ft | 282 kts | 125° |
| 2026-05-06 20:32 | 52.33171 | 4.43054 | 6169 ft | 281 kts | 125° |
| 2026-05-06 20:32 | 52.32061 | 4.45684 | 5618 ft | 281 kts | 125° |
| 2026-05-06 20:32 | 52.30953 | 4.48308 | 5069 ft | 280 kts | 125° |
| 2026-05-06 20:33 | 52.29842 | 4.50932 | 4518 ft | 279 kts | 125° |
| 2026-05-06 20:33 | 52.28741 | 4.53534 | 3971 ft | 278 kts | 125° |
| 2026-05-06 20:33 | 52.27646 | 4.56118 | 3424 ft | 277 kts | 125° |
| 2026-05-06 20:33 | 52.26546 | 4.58711 | 2873 ft | 276 kts | 125° |
| 2026-05-06 20:34 | 52.25452 | 4.61287 | 2344 ft | 274 kts | 125° |
| 2026-05-06 20:34 | 52.24393 | 4.63782 | 2150 ft | 259 kts | 125° |
| 2026-05-06 20:34 | 52.23421 | 4.66069 | 2093 ft | 236 kts | 125° |
| 2026-05-06 20:34 | 52.22520 | 4.68182 | 2051 ft | 211 kts | 125° |
| 2026-05-06 20:35 | 52.21736 | 4.70023 | 2035 ft | 191 kts | 126° |
| 2026-05-06 20:35 | 52.20977 | 4.71800 | 2062 ft | 188 kts | 126° |
| 2026-05-06 20:35 | 52.20421 | 4.73656 | 2044 ft | 178 kts | 95° |
| 2026-05-06 20:35 | 52.20809 | 4.75329 | 2056 ft | 151 kts | 38° |
| 2026-05-06 20:36 | 52.21694 | 4.76109 | 2048 ft | 143 kts | 29° |
| 2026-05-06 20:36 | 52.22556 | 4.76900 | 1878 ft | 142 kts | 15° |
| 2026-05-06 20:36 | 52.23192 | 4.77048 | 1714 ft | 141 kts | 3° |
| 2026-05-06 20:36 | 52.24494 | 4.77320 | 1131 ft | 140 kts | 4° |
| 2026-05-06 20:37 | 52.25151 | 4.77381 | 833 ft | 138 kts | 0° |
| 2026-05-06 20:37 | 52.26064 | 4.77451 | 592 ft | 129 kts | 1° |
| 2026-05-06 20:37 | 52.26991 | 4.77546 | 434 ft | 136 kts | 3° |
| 2026-05-06 20:37 | 52.28255 | 4.77679 | 242 ft | 135 kts | 5° |
| 2026-05-06 20:38 | 52.28878 | 4.77741 | 156 ft | 137 kts | 359° |
| 2026-05-06 20:38 | 52.29822 | 4.77810 | 1 ft | 129 kts | 3° |
| 2026-05-06 20:38 | 52.30624 | 4.77878 | -3 ft | 101 kts | 3° |
| 2026-05-06 20:38 | 52.31062 | 4.77918 | -6 ft | 44 kts | 3° |
| 2026-05-06 20:39 | 52.31240 | 4.77934 | -3 ft | 16 kts | 4° |
| 2026-05-06 20:39 | 52.31346 | 4.77944 | -3 ft | 15 kts | 6° |
| 2026-05-06 20:39 | 52.31447 | 4.77953 | -2 ft | 14 kts | 2° |
| 2026-05-06 20:39 | 52.31544 | 4.77962 | -1 ft | 14 kts | 357° |
| 2026-05-06 20:40 | 52.31597 | 4.77859 | -3 ft | 13 kts | 270° |
| 2026-05-06 20:40 | 52.31592 | 4.77709 | -4 ft | 13 kts | 266° |
| 2026-05-06 20:40 | 52.31586 | 4.77565 | -4 ft | 13 kts | 266° |
| 2026-05-06 20:40 | 52.31582 | 4.77423 | -4 ft | 12 kts | 266° |
| 2026-05-06 20:41 | 52.31577 | 4.77285 | -4 ft | 12 kts | 264° |
| 2026-05-06 20:41 | 52.31526 | 4.77198 | -4 ft | 12 kts | 189° |
| 2026-05-06 20:41 | 52.31487 | 4.77098 | -4 ft | 11 kts | 266° |
| 2026-05-06 20:41 | 52.31483 | 4.76971 | -4 ft | 11 kts | 267° |
| 2026-05-06 20:42 | 52.31479 | 4.76847 | -4 ft | 11 kts | 267° |
| 2026-05-06 20:42 | 52.31475 | 4.76727 | -4 ft | 10 kts | 266° |
| 2026-05-06 20:42 | 52.31440 | 4.76633 | -4 ft | 10 kts | 206° |
| 2026-05-06 20:42 | 52.31399 | 4.76679 | -4 ft | 8 kts | 108° |
| 2026-05-06 20:43 | 52.31380 | 4.76735 | -4 ft | 3 kts | 121° |
| 2026-05-06 20:43 | 52.31376 | 4.76745 | -4 ft | 0 kts | 123° |